Aviation Digital Data Service (ADDS)

Output produced by METARs form (0939 UTC 25 August 2016)
found at http://aviationweather.gov/adds/metars/
 
KFKL 250520Z 2506/2606 18005KT 6SM -RA BKN035 
     TEMPO 2507/2510 2SM -TSRA BKN015CB 
     FM251400 22007KT P6SM BKN035 
     FM252200 VRB05KT P6SM VCTS BKN035CB AMD LTD TO CLD VIS AND WIND